Raeford, North Carolina
Current Conditions -  °F | °C
As of 10:52 AM on Tuesday 21 Oct 2014 (Local Time) from KMEB Reporting Station
Clear Clear  
Wind Chill: 67°   Ceiling: Unl
Heat Index: 67°   Visibility: 10mi
Dew Point: 54°   Wind: 6mph
Humidity: 63%   Direction: 300°WNW
Pressure: 29.95"   Gusts: NA
Location:  34.98°N, 79.22°W
Report Text: KMEB 211452Z AUTO 30005KT 10SM CLR 19/12 A2995 RMK AO2 SLP141 T01940122 50000
Loading
Personal Weather Stations






























Interactive Weather Map
Tropical Storm Tracking
New forecast layout! Learn more

10-Day Weather Forecast

Advertisements
Track Severe Weather on mobile